sensor_id;sensor_type;location;lat;lon;timestamp;temperature;humidity
5041;DHT22;2539;52.568;13.364;2023-09-07T00:00:11;17.60;99.90
5041;DHT22;2539;52.568;13.364;2023-09-07T00:02:37;17.50;99.90
5041;DHT22;2539;52.568;13.364;2023-09-07T00:05:06;17.50;99.90
5041;DHT22;2539;52.568;13.364;2023-09-07T00:07:33;17.50;99.90
5041;DHT22;2539;52.568;13.364;2023-09-07T00:10:00;17.50;99.90
5041;DHT22;2539;52.568;13.364;2023-09-07T00:12:26;17.50;99.90
5041;DHT22;2539;52.568;13.364;2023-09-07T00:14:54;17.50;99.90
5041;DHT22;2539;52.568;13.364;2023-09-07T00:17:21;17.50;99.90
5041;DHT22;2539;52.568;13.364;2023-09-07T00:19:48;17.40;99.90
5041;DHT22;2539;52.568;13.364;2023-09-07T00:22:15;17.40;99.90
5041;DHT22;2539;52.568;13.364;2023-09-07T00:24:43;17.40;99.90
5041;DHT22;2539;52.568;13.364;2023-09-07T00:27:09;17.40;99.90
5041;DHT22;2539;52.568;13.364;2023-09-07T00:29:38;17.40;99.90
5041;DHT22;2539;52.568;13.364;2023-09-07T00:32:05;17.30;99.90
5041;DHT22;2539;52.568;13.364;2023-09-07T00:34:31;17.30;99.90
5041;DHT22;2539;52.568;13.364;2023-09-07T00:36:57;17.30;99.90
5041;DHT22;2539;52.568;13.364;2023-09-07T00:39:23;17.30;99.90
5041;DHT22;2539;52.568;13.364;2023-09-07T00:41:49;17.20;99.90
5041;DHT22;2539;52.568;13.364;2023-09-07T00:44:15;17.20;99.90
5041;DHT22;2539;52.568;13.364;2023-09-07T00:46:42;17.20;99.90
5041;DHT22;2539;52.568;13.364;2023-09-07T00:49:12;17.20;99.90
5041;DHT22;2539;52.568;13.364;2023-09-07T00:51:38;17.20;99.90
5041;DHT22;2539;52.568;13.364;2023-09-07T00:54:04;17.10;99.90
5041;DHT22;2539;52.568;13.364;2023-09-07T00:56:31;17.10;99.90
5041;DHT22;2539;52.568;13.364;2023-09-07T00:58:58;17.10;99.90
5041;DHT22;2539;52.568;13.364;2023-09-07T01:01:26;17.10;99.90
5041;DHT22;2539;52.568;13.364;2023-09-07T01:03:52;17.00;99.90
5041;DHT22;2539;52.568;13.364;2023-09-07T01:06:25;17.00;99.90
5041;DHT22;2539;52.568;13.364;2023-09-07T01:08:55;17.00;99.90
5041;DHT22;2539;52.568;13.364;2023-09-07T01:11:24;17.00;99.90
5041;DHT22;2539;52.568;13.364;2023-09-07T01:13:51;17.00;99.90
5041;DHT22;2539;52.568;13.364;2023-09-07T01:16:20;17.00;99.90
5041;DHT22;2539;52.568;13.364;2023-09-07T01:18:47;17.00;99.90
5041;DHT22;2539;52.568;13.364;2023-09-07T01:21:14;16.90;99.90
5041;DHT22;2539;52.568;13.364;2023-09-07T01:23:42;16.90;99.90
5041;DHT22;2539;52.568;13.364;2023-09-07T01:26:09;16.90;99.90
5041;DHT22;2539;52.568;13.364;2023-09-07T01:28:35;16.90;99.90
5041;DHT22;2539;52.568;13.364;2023-09-07T01:31:02;16.80;99.90
5041;DHT22;2539;52.568;13.364;2023-09-07T01:33:28;16.80;99.90
5041;DHT22;2539;52.568;13.364;2023-09-07T01:35:54;16.80;99.90
5041;DHT22;2539;52.568;13.364;2023-09-07T01:38:21;16.80;99.90
5041;DHT22;2539;52.568;13.364;2023-09-07T01:40:47;16.80;99.90
5041;DHT22;2539;52.568;13.364;2023-09-07T01:43:14;16.80;99.90
5041;DHT22;2539;52.568;13.364;2023-09-07T01:45:40;16.70;99.90
5041;DHT22;2539;52.568;13.364;2023-09-07T01:48:13;16.70;99.90
5041;DHT22;2539;52.568;13.364;2023-09-07T01:50:40;16.60;99.90
5041;DHT22;2539;52.568;13.364;2023-09-07T01:53:06;16.60;99.90
5041;DHT22;2539;52.568;13.364;2023-09-07T01:55:33;16.50;99.90
5041;DHT22;2539;52.568;13.364;2023-09-07T01:57:59;16.50;99.90
5041;DHT22;2539;52.568;13.364;2023-09-07T02:00:25;16.50;99.90
5041;DHT22;2539;52.568;13.364;2023-09-07T02:02:51;16.50;99.90
5041;DHT22;2539;52.568;13.364;2023-09-07T02:05:16;16.50;99.90
5041;DHT22;2539;52.568;13.364;2023-09-07T02:07:43;16.40;99.90
5041;DHT22;2539;52.568;13.364;2023-09-07T02:10:09;16.40;99.90
5041;DHT22;2539;52.568;13.364;2023-09-07T02:12:36;16.40;99.90
5041;DHT22;2539;52.568;13.364;2023-09-07T02:15:04;16.50;99.90
5041;DHT22;2539;52.568;13.364;2023-09-07T02:17:30;16.40;99.90
5041;DHT22;2539;52.568;13.364;2023-09-07T02:19:56;16.40;99.90
5041;DHT22;2539;52.568;13.364;2023-09-07T02:22:23;16.30;99.90
5041;DHT22;2539;52.568;13.364;2023-09-07T02:24:49;16.20;99.90
5041;DHT22;2539;52.568;13.364;2023-09-07T02:27:15;16.30;99.90
5041;DHT22;2539;52.568;13.364;2023-09-07T02:29:42;16.20;99.90
5041;DHT22;2539;52.568;13.364;2023-09-07T02:32:08;16.20;99.90
5041;DHT22;2539;52.568;13.364;2023-09-07T02:34:35;16.20;99.90
5041;DHT22;2539;52.568;13.364;2023-09-07T02:37:03;16.20;99.90
5041;DHT22;2539;52.568;13.364;2023-09-07T02:39:29;16.20;99.90
5041;DHT22;2539;52.568;13.364;2023-09-07T02:41:55;16.10;99.90
5041;DHT22;2539;52.568;13.364;2023-09-07T02:44:21;16.10;99.90
5041;DHT22;2539;52.568;13.364;2023-09-07T02:46:48;16.10;99.90
5041;DHT22;2539;52.568;13.364;2023-09-07T02:49:14;16.10;99.90
5041;DHT22;2539;52.568;13.364;2023-09-07T02:51:41;16.10;99.90
5041;DHT22;2539;52.568;13.364;2023-09-07T02:54:07;16.00;99.90
5041;DHT22;2539;52.568;13.364;2023-09-07T02:56:33;16.10;99.90
5041;DHT22;2539;52.568;13.364;2023-09-07T02:59:00;16.00;99.90
5041;DHT22;2539;52.568;13.364;2023-09-07T03:01:27;16.00;99.90
5041;DHT22;2539;52.568;13.364;2023-09-07T03:03:53;16.00;99.90
5041;DHT22;2539;52.568;13.364;2023-09-07T03:06:19;16.00;99.90
5041;DHT22;2539;52.568;13.364;2023-09-07T03:08:46;16.00;99.90
5041;DHT22;2539;52.568;13.364;2023-09-07T03:11:12;15.90;99.90
5041;DHT22;2539;52.568;13.364;2023-09-07T03:13:38;15.90;99.90
5041;DHT22;2539;52.568;13.364;2023-09-07T03:16:05;16.00;99.90
5041;DHT22;2539;52.568;13.364;2023-09-07T03:18:31;15.90;99.90
5041;DHT22;2539;52.568;13.364;2023-09-07T03:20:59;15.90;99.90
5041;DHT22;2539;52.568;13.364;2023-09-07T03:23:27;15.80;99.90
5041;DHT22;2539;52.568;13.364;2023-09-07T03:25:54;15.80;99.90
5041;DHT22;2539;52.568;13.364;2023-09-07T03:28:20;15.70;99.90
5041;DHT22;2539;52.568;13.364;2023-09-07T03:30:46;15.80;99.90
5041;DHT22;2539;52.568;13.364;2023-09-07T03:33:12;15.80;99.90
5041;DHT22;2539;52.568;13.364;2023-09-07T03:35:39;15.80;99.90
5041;DHT22;2539;52.568;13.364;2023-09-07T03:38:06;15.80;99.90
5041;DHT22;2539;52.568;13.364;2023-09-07T03:40:33;15.80;99.90
5041;DHT22;2539;52.568;13.364;2023-09-07T03:42:59;15.80;99.90
5041;DHT22;2539;52.568;13.364;2023-09-07T03:45:25;15.80;99.90
5041;DHT22;2539;52.568;13.364;2023-09-07T03:47:52;15.80;99.90
5041;DHT22;2539;52.568;13.364;2023-09-07T03:50:18;15.80;99.90
5041;DHT22;2539;52.568;13.364;2023-09-07T03:52:44;15.70;99.90
5041;DHT22;2539;52.568;13.364;2023-09-07T03:55:10;15.70;99.90
5041;DHT22;2539;52.568;13.364;2023-09-07T03:57:37;15.60;99.90
5041;DHT22;2539;52.568;13.364;2023-09-07T04:00:03;15.60;99.90
5041;DHT22;2539;52.568;13.364;2023-09-07T04:02:34;15.50;99.90
5041;DHT22;2539;52.568;13.364;2023-09-07T04:05:00;15.60;99.90
5041;DHT22;2539;52.568;13.364;2023-09-07T04:07:31;15.60;99.90
5041;DHT22;2539;52.568;13.364;2023-09-07T04:09:59;15.60;99.90
5041;DHT22;2539;52.568;13.364;2023-09-07T04:12:25;15.50;99.90
5041;DHT22;2539;52.568;13.364;2023-09-07T04:14:52;15.50;99.90
5041;DHT22;2539;52.568;13.364;2023-09-07T04:17:19;15.50;99.90
5041;DHT22;2539;52.568;13.364;2023-09-07T04:19:45;15.50;99.90
5041;DHT22;2539;52.568;13.364;2023-09-07T04:22:11;15.50;99.90
5041;DHT22;2539;52.568;13.364;2023-09-07T04:24:38;15.50;99.90
5041;DHT22;2539;52.568;13.364;2023-09-07T04:27:04;15.50;99.90
5041;DHT22;2539;52.568;13.364;2023-09-07T04:29:30;15.50;99.90
5041;DHT22;2539;52.568;13.364;2023-09-07T04:31:57;15.40;99.90
5041;DHT22;2539;52.568;13.364;2023-09-07T04:34:23;15.50;99.90
5041;DHT22;2539;52.568;13.364;2023-09-07T04:36:50;15.60;99.90
5041;DHT22;2539;52.568;13.364;2023-09-07T04:39:16;15.50;99.90
5041;DHT22;2539;52.568;13.364;2023-09-07T04:41:42;15.50;99.90
5041;DHT22;2539;52.568;13.364;2023-09-07T04:44:09;15.50;99.90
5041;DHT22;2539;52.568;13.364;2023-09-07T04:46:35;15.50;99.90
5041;DHT22;2539;52.568;13.364;2023-09-07T04:49:01;15.50;99.90
5041;DHT22;2539;52.568;13.364;2023-09-07T04:51:26;15.50;99.90
5041;DHT22;2539;52.568;13.364;2023-09-07T04:53:52;15.60;99.90
5041;DHT22;2539;52.568;13.364;2023-09-07T04:56:18;15.60;99.90
5041;DHT22;2539;52.568;13.364;2023-09-07T04:58:44;15.60;99.90
5041;DHT22;2539;52.568;13.364;2023-09-07T05:01:11;15.70;99.90
5041;DHT22;2539;52.568;13.364;2023-09-07T05:03:38;15.80;99.90
5041;DHT22;2539;52.568;13.364;2023-09-07T05:06:07;15.70;99.90
5041;DHT22;2539;52.568;13.364;2023-09-07T05:08:34;15.80;99.90
5041;DHT22;2539;52.568;13.364;2023-09-07T05:11:04;15.80;99.90
5041;DHT22;2539;52.568;13.364;2023-09-07T05:13:31;15.90;99.90
5041;DHT22;2539;52.568;13.364;2023-09-07T05:15:59;15.90;99.90
5041;DHT22;2539;52.568;13.364;2023-09-07T05:18:28;16.00;99.90
5041;DHT22;2539;52.568;13.364;2023-09-07T05:20:55;16.10;99.90
5041;DHT22;2539;52.568;13.364;2023-09-07T05:23:21;16.10;99.90
5041;DHT22;2539;52.568;13.364;2023-09-07T05:25:52;16.20;99.90
5041;DHT22;2539;52.568;13.364;2023-09-07T05:28:21;16.20;99.90
5041;DHT22;2539;52.568;13.364;2023-09-07T05:30:48;16.20;99.90
5041;DHT22;2539;52.568;13.364;2023-09-07T05:33:16;16.30;99.90
5041;DHT22;2539;52.568;13.364;2023-09-07T05:35:42;16.40;99.90
5041;DHT22;2539;52.568;13.364;2023-09-07T05:38:09;16.40;99.90
5041;DHT22;2539;52.568;13.364;2023-09-07T05:40:41;16.50;99.90
5041;DHT22;2539;52.568;13.364;2023-09-07T05:43:08;16.60;99.90
5041;DHT22;2539;52.568;13.364;2023-09-07T05:45:37;16.70;99.90
5041;DHT22;2539;52.568;13.364;2023-09-07T05:48:04;16.80;99.90
5041;DHT22;2539;52.568;13.364;2023-09-07T05:50:33;16.90;99.90
5041;DHT22;2539;52.568;13.364;2023-09-07T05:52:59;16.90;99.90
5041;DHT22;2539;52.568;13.364;2023-09-07T05:55:26;17.00;99.90
5041;DHT22;2539;52.568;13.364;2023-09-07T05:57:54;17.10;99.90
5041;DHT22;2539;52.568;13.364;2023-09-07T06:00:21;17.20;99.90
5041;DHT22;2539;52.568;13.364;2023-09-07T06:02:48;17.20;99.90
5041;DHT22;2539;52.568;13.364;2023-09-07T06:05:14;17.30;99.90
5041;DHT22;2539;52.568;13.364;2023-09-07T06:07:41;17.40;99.90
5041;DHT22;2539;52.568;13.364;2023-09-07T06:10:07;17.40;99.90
5041;DHT22;2539;52.568;13.364;2023-09-07T06:12:34;17.50;99.90
5041;DHT22;2539;52.568;13.364;2023-09-07T06:15:00;17.50;99.90
5041;DHT22;2539;52.568;13.364;2023-09-07T06:17:27;17.60;99.90
5041;DHT22;2539;52.568;13.364;2023-09-07T06:19:54;17.70;99.90
5041;DHT22;2539;52.568;13.364;2023-09-07T06:22:20;17.80;99.90
5041;DHT22;2539;52.568;13.364;2023-09-07T06:24:47;17.90;99.90
5041;DHT22;2539;52.568;13.364;2023-09-07T06:27:13;17.90;99.90
5041;DHT22;2539;52.568;13.364;2023-09-07T06:29:39;18.10;99.90
5041;DHT22;2539;52.568;13.364;2023-09-07T06:32:06;18.20;99.90
5041;DHT22;2539;52.568;13.364;2023-09-07T06:34:41;18.30;99.90
5041;DHT22;2539;52.568;13.364;2023-09-07T06:37:07;18.40;99.90
5041;DHT22;2539;52.568;13.364;2023-09-07T06:39:33;18.50;99.90
5041;DHT22;2539;52.568;13.364;2023-09-07T06:42:00;18.60;99.90
5041;DHT22;2539;52.568;13.364;2023-09-07T06:44:26;18.70;99.90
5041;DHT22;2539;52.568;13.364;2023-09-07T06:46:52;18.80;99.90
5041;DHT22;2539;52.568;13.364;2023-09-07T06:49:18;18.80;99.90
5041;DHT22;2539;52.568;13.364;2023-09-07T06:51:45;18.90;99.90
5041;DHT22;2539;52.568;13.364;2023-09-07T06:54:11;19.10;99.90
5041;DHT22;2539;52.568;13.364;2023-09-07T06:56:39;19.10;99.90
5041;DHT22;2539;52.568;13.364;2023-09-07T06:59:05;19.20;99.90
5041;DHT22;2539;52.568;13.364;2023-09-07T07:01:31;19.30;99.90
5041;DHT22;2539;52.568;13.364;2023-09-07T07:03:58;19.40;99.90
5041;DHT22;2539;52.568;13.364;2023-09-07T07:06:24;19.50;99.90
5041;DHT22;2539;52.568;13.364;2023-09-07T07:08:51;19.50;99.90
5041;DHT22;2539;52.568;13.364;2023-09-07T07:11:18;19.60;99.90
5041;DHT22;2539;52.568;13.364;2023-09-07T07:13:45;19.70;99.90
5041;DHT22;2539;52.568;13.364;2023-09-07T07:16:11;19.90;99.90
5041;DHT22;2539;52.568;13.364;2023-09-07T07:18:37;20.00;99.90
5041;DHT22;2539;52.568;13.364;2023-09-07T07:21:05;20.10;99.90
5041;DHT22;2539;52.568;13.364;2023-09-07T07:23:31;20.20;99.90
5041;DHT22;2539;52.568;13.364;2023-09-07T07:25:58;20.30;99.90
5041;DHT22;2539;52.568;13.364;2023-09-07T07:28:24;20.40;99.90
5041;DHT22;2539;52.568;13.364;2023-09-07T07:30:50;20.50;99.90
5041;DHT22;2539;52.568;13.364;2023-09-07T07:33:18;20.60;99.90
5041;DHT22;2539;52.568;13.364;2023-09-07T07:35:44;20.80;99.90
5041;DHT22;2539;52.568;13.364;2023-09-07T07:38:11;20.70;99.90
5041;DHT22;2539;52.568;13.364;2023-09-07T07:40:40;20.80;99.90
5041;DHT22;2539;52.568;13.364;2023-09-07T07:43:06;20.90;99.90
5041;DHT22;2539;52.568;13.364;2023-09-07T07:45:33;20.90;99.90
5041;DHT22;2539;52.568;13.364;2023-09-07T07:48:02;20.90;99.90
5041;DHT22;2539;52.568;13.364;2023-09-07T07:50:31;21.00;99.90
5041;DHT22;2539;52.568;13.364;2023-09-07T07:52:57;21.10;99.90
5041;DHT22;2539;52.568;13.364;2023-09-07T07:55:24;21.10;99.90
5041;DHT22;2539;52.568;13.364;2023-09-07T07:57:50;21.20;99.90
5041;DHT22;2539;52.568;13.364;2023-09-07T08:00:16;21.30;99.90
5041;DHT22;2539;52.568;13.364;2023-09-07T08:02:42;21.30;99.90
5041;DHT22;2539;52.568;13.364;2023-09-07T08:05:10;21.30;99.90
5041;DHT22;2539;52.568;13.364;2023-09-07T08:07:36;21.40;99.90
5041;DHT22;2539;52.568;13.364;2023-09-07T08:10:02;21.50;99.90
5041;DHT22;2539;52.568;13.364;2023-09-07T08:12:29;21.50;99.90
5041;DHT22;2539;52.568;13.364;2023-09-07T08:14:55;21.60;99.90
5041;DHT22;2539;52.568;13.364;2023-09-07T08:17:22;21.70;99.90
5041;DHT22;2539;52.568;13.364;2023-09-07T08:19:49;21.80;99.90
5041;DHT22;2539;52.568;13.364;2023-09-07T08:22:17;21.90;99.90
5041;DHT22;2539;52.568;13.364;2023-09-07T08:24:43;22.00;99.90
5041;DHT22;2539;52.568;13.364;2023-09-07T08:27:11;22.00;99.90
5041;DHT22;2539;52.568;13.364;2023-09-07T08:29:42;22.10;99.90
5041;DHT22;2539;52.568;13.364;2023-09-07T08:32:13;22.20;99.90
5041;DHT22;2539;52.568;13.364;2023-09-07T08:34:40;22.30;99.90
5041;DHT22;2539;52.568;13.364;2023-09-07T08:37:07;22.30;99.90
5041;DHT22;2539;52.568;13.364;2023-09-07T08:39:35;22.40;99.90
5041;DHT22;2539;52.568;13.364;2023-09-07T08:42:08;22.50;99.90
5041;DHT22;2539;52.568;13.364;2023-09-07T08:44:37;22.60;99.90
5041;DHT22;2539;52.568;13.364;2023-09-07T08:47:06;22.70;99.90
5041;DHT22;2539;52.568;13.364;2023-09-07T08:49:32;22.80;99.90
5041;DHT22;2539;52.568;13.364;2023-09-07T08:52:00;23.00;99.90
5041;DHT22;2539;52.568;13.364;2023-09-07T08:54:26;23.00;99.90
5041;DHT22;2539;52.568;13.364;2023-09-07T08:56:52;23.00;99.90
5041;DHT22;2539;52.568;13.364;2023-09-07T08:59:19;23.00;99.90
5041;DHT22;2539;52.568;13.364;2023-09-07T09:01:45;23.00;99.90
5041;DHT22;2539;52.568;13.364;2023-09-07T09:04:12;23.20;99.90
5041;DHT22;2539;52.568;13.364;2023-09-07T09:06:38;23.20;99.90
5041;DHT22;2539;52.568;13.364;2023-09-07T09:09:05;23.30;99.90
5041;DHT22;2539;52.568;13.364;2023-09-07T09:11:31;23.30;99.90
5041;DHT22;2539;52.568;13.364;2023-09-07T09:13:57;23.40;99.90
5041;DHT22;2539;52.568;13.364;2023-09-07T09:16:24;23.40;99.90
5041;DHT22;2539;52.568;13.364;2023-09-07T09:18:58;23.50;99.90
5041;DHT22;2539;52.568;13.364;2023-09-07T09:21:26;23.70;99.90
5041;DHT22;2539;52.568;13.364;2023-09-07T09:23:54;23.70;99.90
5041;DHT22;2539;52.568;13.364;2023-09-07T09:26:23;23.80;99.90
5041;DHT22;2539;52.568;13.364;2023-09-07T09:28:50;23.80;99.90
5041;DHT22;2539;52.568;13.364;2023-09-07T09:31:19;23.90;99.90
5041;DHT22;2539;52.568;13.364;2023-09-07T09:33:49;23.90;99.90
5041;DHT22;2539;52.568;13.364;2023-09-07T09:36:17;23.90;99.90
5041;DHT22;2539;52.568;13.364;2023-09-07T09:38:48;24.00;99.90
5041;DHT22;2539;52.568;13.364;2023-09-07T09:41:17;24.00;99.90
5041;DHT22;2539;52.568;13.364;2023-09-07T09:43:43;24.00;99.90
5041;DHT22;2539;52.568;13.364;2023-09-07T09:46:12;24.10;99.90
5041;DHT22;2539;52.568;13.364;2023-09-07T09:48:40;24.10;99.90
5041;DHT22;2539;52.568;13.364;2023-09-07T09:51:07;24.00;99.90
5041;DHT22;2539;52.568;13.364;2023-09-07T09:53:34;24.10;99.90
5041;DHT22;2539;52.568;13.364;2023-09-07T09:56:01;24.20;99.90
5041;DHT22;2539;52.568;13.364;2023-09-07T09:58:27;24.20;99.90
5041;DHT22;2539;52.568;13.364;2023-09-07T10:00:56;24.30;99.90
5041;DHT22;2539;52.568;13.364;2023-09-07T10:03:28;24.30;99.90
5041;DHT22;2539;52.568;13.364;2023-09-07T10:06:06;24.30;99.90
5041;DHT22;2539;52.568;13.364;2023-09-07T10:08:33;24.30;99.90
5041;DHT22;2539;52.568;13.364;2023-09-07T10:10:59;24.40;99.90
5041;DHT22;2539;52.568;13.364;2023-09-07T10:13:32;24.50;99.90
5041;DHT22;2539;52.568;13.364;2023-09-07T10:16:06;24.60;99.90
5041;DHT22;2539;52.568;13.364;2023-09-07T10:18:37;24.60;99.90
5041;DHT22;2539;52.568;13.364;2023-09-07T10:21:04;24.60;99.90
5041;DHT22;2539;52.568;13.364;2023-09-07T10:26:05;24.80;99.90
5041;DHT22;2539;52.568;13.364;2023-09-07T10:28:31;24.80;99.90
5041;DHT22;2539;52.568;13.364;2023-09-07T10:33:25;24.90;99.90
5041;DHT22;2539;52.568;13.364;2023-09-07T10:35:52;24.90;99.90
5041;DHT22;2539;52.568;13.364;2023-09-07T10:38:19;25.00;99.90
5041;DHT22;2539;52.568;13.364;2023-09-07T10:40:45;25.00;99.90
5041;DHT22;2539;52.568;13.364;2023-09-07T10:43:14;25.00;99.90
5041;DHT22;2539;52.568;13.364;2023-09-07T10:45:44;25.10;99.90
5041;DHT22;2539;52.568;13.364;2023-09-07T10:48:10;25.30;99.90
5041;DHT22;2539;52.568;13.364;2023-09-07T10:50:47;25.20;99.90
5041;DHT22;2539;52.568;13.364;2023-09-07T10:53:14;25.30;99.80
5041;DHT22;2539;52.568;13.364;2023-09-07T10:55:41;25.30;99.70
5041;DHT22;2539;52.568;13.364;2023-09-07T10:58:09;25.30;99.50
5041;DHT22;2539;52.568;13.364;2023-09-07T11:00:36;25.40;99.40
5041;DHT22;2539;52.568;13.364;2023-09-07T11:03:10;25.30;99.20
5041;DHT22;2539;52.568;13.364;2023-09-07T11:05:37;25.40;99.30
5041;DHT22;2539;52.568;13.364;2023-09-07T11:08:05;25.40;98.60
5041;DHT22;2539;52.568;13.364;2023-09-07T11:10:33;25.40;98.60
5041;DHT22;2539;52.568;13.364;2023-09-07T11:13:04;25.40;98.30
5041;DHT22;2539;52.568;13.364;2023-09-07T11:15:32;25.40;98.20
5041;DHT22;2539;52.568;13.364;2023-09-07T11:18:06;25.40;98.90
5041;DHT22;2539;52.568;13.364;2023-09-07T11:20:34;25.40;98.10
5041;DHT22;2539;52.568;13.364;2023-09-07T11:23:00;25.40;98.30
5041;DHT22;2539;52.568;13.364;2023-09-07T11:25:27;25.50;98.30
5041;DHT22;2539;52.568;13.364;2023-09-07T11:27:53;25.50;98.60
5041;DHT22;2539;52.568;13.364;2023-09-07T11:30:21;25.50;98.00
5041;DHT22;2539;52.568;13.364;2023-09-07T11:32:48;25.60;98.40
5041;DHT22;2539;52.568;13.364;2023-09-07T11:35:14;25.70;98.00
5041;DHT22;2539;52.568;13.364;2023-09-07T11:37:40;25.80;98.00
5041;DHT22;2539;52.568;13.364;2023-09-07T11:40:07;25.90;97.90
5041;DHT22;2539;52.568;13.364;2023-09-07T11:42:38;26.00;98.40
5041;DHT22;2539;52.568;13.364;2023-09-07T11:45:06;26.00;98.00
5041;DHT22;2539;52.568;13.364;2023-09-07T11:47:32;26.10;97.70
5041;DHT22;2539;52.568;13.364;2023-09-07T11:50:00;26.10;97.60
5041;DHT22;2539;52.568;13.364;2023-09-07T11:52:27;26.10;97.40
5041;DHT22;2539;52.568;13.364;2023-09-07T11:54:53;26.10;97.10
5041;DHT22;2539;52.568;13.364;2023-09-07T11:57:20;26.10;96.60
5041;DHT22;2539;52.568;13.364;2023-09-07T11:59:46;26.20;96.30
5041;DHT22;2539;52.568;13.364;2023-09-07T12:02:12;26.20;96.10
5041;DHT22;2539;52.568;13.364;2023-09-07T12:04:41;26.30;95.90
5041;DHT22;2539;52.568;13.364;2023-09-07T12:07:07;26.20;95.90
5041;DHT22;2539;52.568;13.364;2023-09-07T12:09:33;26.20;95.90
5041;DHT22;2539;52.568;13.364;2023-09-07T12:12:00;26.20;95.50
5041;DHT22;2539;52.568;13.364;2023-09-07T12:14:26;26.20;95.60
5041;DHT22;2539;52.568;13.364;2023-09-07T12:16:52;26.20;95.50
5041;DHT22;2539;52.568;13.364;2023-09-07T12:19:18;26.30;95.00
5041;DHT22;2539;52.568;13.364;2023-09-07T12:21:45;26.40;95.80
5041;DHT22;2539;52.568;13.364;2023-09-07T12:24:11;26.30;96.20
5041;DHT22;2539;52.568;13.364;2023-09-07T12:26:38;26.30;95.90
5041;DHT22;2539;52.568;13.364;2023-09-07T12:29:05;26.30;95.90
5041;DHT22;2539;52.568;13.364;2023-09-07T12:31:32;26.30;95.90
5041;DHT22;2539;52.568;13.364;2023-09-07T12:33:58;26.20;95.30
5041;DHT22;2539;52.568;13.364;2023-09-07T12:36:25;26.20;95.30
5041;DHT22;2539;52.568;13.364;2023-09-07T12:38:54;26.20;95.40
5041;DHT22;2539;52.568;13.364;2023-09-07T12:41:20;26.20;96.30
5041;DHT22;2539;52.568;13.364;2023-09-07T12:43:47;26.20;95.90
5041;DHT22;2539;52.568;13.364;2023-09-07T12:46:13;26.30;96.20
5041;DHT22;2539;52.568;13.364;2023-09-07T12:48:39;26.30;95.70
5041;DHT22;2539;52.568;13.364;2023-09-07T12:51:06;26.50;95.70
5041;DHT22;2539;52.568;13.364;2023-09-07T12:53:32;26.50;95.30
5041;DHT22;2539;52.568;13.364;2023-09-07T12:55:58;26.50;95.10
5041;DHT22;2539;52.568;13.364;2023-09-07T12:58:24;26.50;94.70
5041;DHT22;2539;52.568;13.364;2023-09-07T13:00:51;26.50;94.80
5041;DHT22;2539;52.568;13.364;2023-09-07T13:03:19;26.60;94.90
5041;DHT22;2539;52.568;13.364;2023-09-07T13:05:45;26.60;95.00
5041;DHT22;2539;52.568;13.364;2023-09-07T13:08:11;26.50;94.90
5041;DHT22;2539;52.568;13.364;2023-09-07T13:10:38;26.60;94.20
5041;DHT22;2539;52.568;13.364;2023-09-07T13:13:04;26.50;95.10
5041;DHT22;2539;52.568;13.364;2023-09-07T13:15:31;26.50;95.70
5041;DHT22;2539;52.568;13.364;2023-09-07T13:17:57;26.50;94.90
5041;DHT22;2539;52.568;13.364;2023-09-07T13:20:23;26.70;93.90
5041;DHT22;2539;52.568;13.364;2023-09-07T13:22:49;26.80;93.80
5041;DHT22;2539;52.568;13.364;2023-09-07T13:25:16;26.90;93.50
5041;DHT22;2539;52.568;13.364;2023-09-07T13:27:42;26.80;93.90
5041;DHT22;2539;52.568;13.364;2023-09-07T13:30:08;26.70;94.00
5041;DHT22;2539;52.568;13.364;2023-09-07T13:32:35;26.60;94.00
5041;DHT22;2539;52.568;13.364;2023-09-07T13:35:01;26.60;94.20
5041;DHT22;2539;52.568;13.364;2023-09-07T13:37:27;26.60;93.70
5041;DHT22;2539;52.568;13.364;2023-09-07T13:39:55;26.70;93.80
5041;DHT22;2539;52.568;13.364;2023-09-07T13:42:21;26.60;93.30
5041;DHT22;2539;52.568;13.364;2023-09-07T13:44:47;26.70;93.40
5041;DHT22;2539;52.568;13.364;2023-09-07T13:47:15;26.80;93.00
5041;DHT22;2539;52.568;13.364;2023-09-07T13:49:41;26.80;93.10
5041;DHT22;2539;52.568;13.364;2023-09-07T13:52:08;26.70;93.10
5041;DHT22;2539;52.568;13.364;2023-09-07T13:54:34;26.80;92.40
5041;DHT22;2539;52.568;13.364;2023-09-07T13:57:00;26.80;92.70
5041;DHT22;2539;52.568;13.364;2023-09-07T13:59:26;26.70;92.90
5041;DHT22;2539;52.568;13.364;2023-09-07T14:01:54;26.80;92.20
5041;DHT22;2539;52.568;13.364;2023-09-07T14:04:21;26.80;92.00
5041;DHT22;2539;52.568;13.364;2023-09-07T14:06:47;26.80;91.90
5041;DHT22;2539;52.568;13.364;2023-09-07T14:09:14;26.80;92.00
5041;DHT22;2539;52.568;13.364;2023-09-07T14:11:40;26.70;92.40
5041;DHT22;2539;52.568;13.364;2023-09-07T14:14:06;26.70;92.70
5041;DHT22;2539;52.568;13.364;2023-09-07T14:16:33;26.90;92.40
5041;DHT22;2539;52.568;13.364;2023-09-07T14:18:59;27.00;92.60
5041;DHT22;2539;52.568;13.364;2023-09-07T14:21:26;27.00;92.80
5041;DHT22;2539;52.568;13.364;2023-09-07T14:23:52;26.90;93.10
5041;DHT22;2539;52.568;13.364;2023-09-07T14:26:18;26.90;92.90
5041;DHT22;2539;52.568;13.364;2023-09-07T14:28:45;26.90;93.20
5041;DHT22;2539;52.568;13.364;2023-09-07T14:31:11;26.80;92.80
5041;DHT22;2539;52.568;13.364;2023-09-07T14:33:38;26.90;92.30
5041;DHT22;2539;52.568;13.364;2023-09-07T14:36:06;26.80;92.30
5041;DHT22;2539;52.568;13.364;2023-09-07T14:38:32;26.80;92.40
5041;DHT22;2539;52.568;13.364;2023-09-07T14:41:05;26.70;92.40
5041;DHT22;2539;52.568;13.364;2023-09-07T14:43:32;26.80;92.00
5041;DHT22;2539;52.568;13.364;2023-09-07T14:45:58;26.80;91.20
5041;DHT22;2539;52.568;13.364;2023-09-07T14:48:25;26.90;91.50
5041;DHT22;2539;52.568;13.364;2023-09-07T14:50:52;26.70;91.80
5041;DHT22;2539;52.568;13.364;2023-09-07T14:53:18;26.70;91.90
5041;DHT22;2539;52.568;13.364;2023-09-07T14:55:44;26.70;92.00
5041;DHT22;2539;52.568;13.364;2023-09-07T14:58:11;26.60;92.30
5041;DHT22;2539;52.568;13.364;2023-09-07T15:00:37;26.70;91.90
5041;DHT22;2539;52.568;13.364;2023-09-07T15:03:04;26.70;92.00
5041;DHT22;2539;52.568;13.364;2023-09-07T15:05:30;26.70;92.00
5041;DHT22;2539;52.568;13.364;2023-09-07T15:07:57;26.60;91.80
5041;DHT22;2539;52.568;13.364;2023-09-07T15:10:23;26.70;92.10
5041;DHT22;2539;52.568;13.364;2023-09-07T15:12:52;26.60;92.00
5041;DHT22;2539;52.568;13.364;2023-09-07T15:15:18;26.60;92.10
5041;DHT22;2539;52.568;13.364;2023-09-07T15:17:47;26.60;92.20
5041;DHT22;2539;52.568;13.364;2023-09-07T15:20:13;26.80;92.00
5041;DHT22;2539;52.568;13.364;2023-09-07T15:22:40;27.20;91.80
5041;DHT22;2539;52.568;13.364;2023-09-07T15:25:06;27.50;91.40
5041;DHT22;2539;52.568;13.364;2023-09-07T15:27:33;27.70;90.50
5041;DHT22;2539;52.568;13.364;2023-09-07T15:29:59;27.70;90.80
5041;DHT22;2539;52.568;13.364;2023-09-07T15:32:25;27.70;90.90
5041;DHT22;2539;52.568;13.364;2023-09-07T15:34:51;27.50;91.50
5041;DHT22;2539;52.568;13.364;2023-09-07T15:37:18;27.50;91.30
5041;DHT22;2539;52.568;13.364;2023-09-07T15:39:44;27.40;91.50
5041;DHT22;2539;52.568;13.364;2023-09-07T15:42:10;27.30;91.60
5041;DHT22;2539;52.568;13.364;2023-09-07T15:44:37;27.50;90.90
5041;DHT22;2539;52.568;13.364;2023-09-07T15:47:03;27.90;90.50